createdAt,value
2019-02-12T00:00:10.433Z,6.89
2019-02-12T00:02:10.411Z,6.88
2019-02-12T00:04:18.253Z,6.89
2019-02-12T00:06:15.396Z,6.89
2019-02-12T00:08:15.408Z,6.84
2019-02-12T00:10:15.345Z,6.82
2019-02-12T00:12:14.950Z,6.80
2019-02-12T00:14:14.758Z,6.84
2019-02-12T00:16:10.391Z,6.83
2019-02-12T00:18:19.593Z,6.83
2019-02-12T00:20:14.907Z,6.86
2019-02-12T00:22:10.394Z,6.84
2019-02-12T00:24:10.445Z,6.84
2019-02-12T00:26:10.392Z,6.84
2019-02-12T00:28:14.949Z,6.85
2019-02-12T00:30:14.473Z,6.83
2019-02-12T00:32:14.634Z,6.82
2019-02-12T00:34:15.368Z,6.81
2019-02-12T00:36:10.428Z,6.81
2019-02-12T00:38:10.368Z,6.83
2019-02-12T00:40:15.470Z,6.84
2019-02-12T00:42:14.214Z,6.81
2019-02-12T00:44:10.431Z,6.81
2019-02-12T00:46:15.083Z,6.82
2019-02-12T00:48:10.440Z,6.81
2019-02-12T00:50:10.421Z,6.77
2019-02-12T00:52:10.392Z,6.78
2019-02-12T00:54:10.449Z,6.78
2019-02-12T00:56:15.473Z,6.79
2019-02-12T00:58:15.435Z,6.78
2019-02-12T01:00:10.462Z,6.77
2019-02-12T01:02:14.966Z,6.75
2019-02-12T01:04:15.079Z,6.74
2019-02-12T01:06:15.625Z,6.75
2019-02-12T01:08:10.390Z,6.74
2019-02-12T01:10:15.023Z,6.71
2019-02-12T01:12:10.441Z,6.68
2019-02-12T01:14:14.019Z,6.69
2019-02-12T01:16:14.945Z,6.67
2019-02-12T01:18:10.434Z,6.69
2019-02-12T01:20:10.411Z,6.67
2019-02-12T01:22:10.386Z,6.68
2019-02-12T01:24:14.187Z,6.67
2019-02-12T01:26:10.423Z,6.66
2019-02-12T01:28:10.416Z,6.68
2019-02-12T01:30:10.461Z,6.69
2019-02-12T01:32:14.944Z,6.62
2019-02-12T01:34:10.429Z,6.65
2019-02-12T01:36:14.871Z,6.62
2019-02-12T01:38:15.432Z,6.65
2019-02-12T01:40:14.220Z,6.65
2019-02-12T01:42:10.469Z,6.64
2019-02-12T01:44:10.430Z,6.60
2019-02-12T01:46:17.065Z,6.59
2019-02-12T01:48:15.492Z,6.61
2019-02-12T01:50:15.325Z,6.61
2019-02-12T01:52:10.409Z,6.60
2019-02-12T01:54:15.177Z,6.59
2019-02-12T01:56:15.395Z,6.55
2019-02-12T01:58:10.427Z,6.57
2019-02-12T02:00:10.463Z,6.56
2019-02-12T02:03:54.262Z,6.57
2019-02-12T02:05:57.978Z,6.56
2019-02-12T02:07:54.267Z,6.54
2019-02-12T02:09:59.261Z,6.54
2019-02-12T02:12:10.679Z,6.52
2019-02-12T02:13:54.285Z,6.53
2019-02-12T02:15:56.566Z,6.52
2019-02-12T02:17:59.208Z,6.55
2019-02-12T02:19:54.275Z,6.53
2019-02-12T02:21:54.512Z,6.52
2019-02-12T02:23:54.246Z,6.51
2019-02-12T02:25:54.263Z,6.48
2019-02-12T02:27:54.273Z,6.52
2019-02-12T02:29:59.257Z,6.50
2019-02-12T02:32:03.465Z,6.49
2019-02-12T02:33:54.335Z,6.45
2019-02-12T02:35:59.457Z,6.46
2019-02-12T02:37:54.256Z,6.45
2019-02-12T02:39:54.320Z,6.48
2019-02-12T02:41:54.307Z,6.44
2019-02-12T02:43:54.292Z,6.42
2019-02-12T02:45:54.317Z,6.46
2019-02-12T02:47:54.303Z,6.44
2019-02-12T02:49:54.268Z,6.44
2019-02-12T02:51:54.328Z,6.44
2019-02-12T02:53:54.281Z,6.41
2019-02-12T02:55:58.940Z,6.41
2019-02-12T02:57:54.320Z,6.40
2019-02-12T02:59:54.264Z,6.38
2019-02-12T03:02:04.526Z,6.37
2019-02-12T03:03:54.322Z,6.38
2019-02-12T03:05:54.269Z,6.35
2019-02-12T03:07:59.322Z,6.39
2019-02-12T03:09:54.289Z,6.38
2019-02-12T03:11:54.302Z,6.39
2019-02-12T03:13:54.264Z,6.37
2019-02-12T03:15:59.519Z,6.38
2019-02-12T03:17:59.251Z,6.37
2019-02-12T03:19:59.261Z,6.35
2019-02-12T03:22:03.114Z,6.40
2019-02-12T03:23:58.810Z,6.39
2019-02-12T03:25:54.308Z,6.37
2019-02-12T03:27:54.344Z,6.35
2019-02-12T03:29:58.780Z,6.34
2019-02-12T03:32:03.604Z,6.34
2019-02-12T03:33:54.320Z,6.32
2019-02-12T03:35:54.284Z,6.31
2019-02-12T03:37:58.719Z,6.30
2019-02-12T03:39:54.326Z,6.31
2019-02-12T03:41:54.317Z,6.30
2019-02-12T03:43:54.293Z,6.31
2019-02-12T03:45:54.318Z,6.31
2019-02-12T03:47:59.266Z,6.29
2019-02-12T03:49:58.888Z,6.32
2019-02-12T03:51:54.300Z,6.30
2019-02-12T03:53:54.294Z,6.26
2019-02-12T03:55:58.722Z,6.25
2019-02-12T03:57:54.328Z,6.26
2019-02-12T03:59:54.313Z,6.29
2019-02-12T04:02:03.238Z,6.30
2019-02-12T04:03:54.377Z,6.27
2019-02-12T04:05:54.300Z,6.27
2019-02-12T04:08:02.755Z,6.26
2019-02-12T04:09:54.304Z,6.23
2019-02-12T04:11:54.329Z,6.28
2019-02-12T04:13:54.262Z,6.24
2019-02-12T04:15:54.303Z,6.26
2019-02-12T04:17:57.016Z,6.23
2019-02-12T04:19:54.279Z,6.24
2019-02-12T04:21:54.327Z,6.23
2019-02-12T04:23:54.331Z,6.25
2019-02-12T04:25:54.324Z,6.24
2019-02-12T04:27:55.545Z,6.24
2019-02-12T04:29:54.314Z,6.23
2019-02-12T04:32:03.501Z,6.22
2019-02-12T04:33:54.342Z,6.23
2019-02-12T04:35:54.313Z,6.20
2019-02-12T04:37:54.301Z,6.21
2019-02-12T04:39:59.870Z,6.21
2019-02-12T04:41:59.317Z,6.22
2019-02-12T04:43:54.341Z,6.19
2019-02-12T04:45:54.335Z,6.21
2019-02-12T04:47:58.736Z,6.19
2019-02-12T04:49:54.297Z,6.19
2019-02-12T04:51:54.385Z,6.19
2019-02-12T04:53:58.863Z,6.21
2019-02-12T04:55:55.204Z,6.19
2019-02-12T04:57:54.325Z,6.21
2019-02-12T04:59:54.318Z,6.17
2019-02-12T05:02:03.505Z,6.21
2019-02-12T05:03:54.345Z,6.20
2019-02-12T05:05:54.384Z,6.20
2019-02-12T05:08:02.630Z,6.19
2019-02-12T05:09:58.861Z,6.18
2019-02-12T05:11:54.359Z,6.20
2019-02-12T05:13:59.311Z,6.16
2019-02-12T05:15:54.326Z,6.17
2019-02-12T05:17:59.545Z,6.21
2019-02-12T05:19:55.353Z,6.15
2019-02-12T05:21:55.354Z,6.17
2019-02-12T05:23:59.128Z,6.14
2019-02-12T05:26:00.051Z,6.17
2019-02-12T05:27:58.870Z,6.18
2019-02-12T05:29:56.185Z,6.17
2019-02-12T05:32:03.517Z,6.16
2019-02-12T05:34:01.643Z,6.16
2019-02-12T05:35:55.639Z,6.18
2019-02-12T05:37:54.336Z,6.16
2019-02-12T05:39:54.330Z,6.16
2019-02-12T05:41:54.372Z,6.15
2019-02-12T05:43:54.391Z,6.14
2019-02-12T05:45:58.942Z,6.16
2019-02-12T05:47:54.367Z,6.13
2019-02-12T05:49:59.286Z,6.12
2019-02-12T05:51:54.363Z,6.13
2019-02-12T05:53:54.379Z,6.14
2019-02-12T05:55:58.834Z,6.16
2019-02-12T05:57:54.328Z,6.15
2019-02-12T05:59:54.372Z,6.12
2019-02-12T06:02:04.251Z,6.14
2019-02-12T06:03:54.337Z,6.14
2019-02-12T06:05:54.369Z,6.16
2019-02-12T06:07:54.339Z,6.18
2019-02-12T06:09:55.494Z,6.14
2019-02-12T06:11:54.404Z,6.16
2019-02-12T06:13:54.337Z,6.16
2019-02-12T06:15:54.340Z,6.18
2019-02-12T06:17:55.320Z,6.14
2019-02-12T06:19:58.819Z,6.14
2019-02-12T06:21:54.338Z,6.13
2019-02-12T06:23:54.345Z,6.12
2019-02-12T06:25:54.375Z,6.12
2019-02-12T06:27:54.364Z,6.12
2019-02-12T06:29:54.384Z,6.15
2019-02-12T06:32:00.312Z,6.13
2019-02-12T06:33:54.368Z,6.15
2019-02-12T06:35:54.363Z,6.14
2019-02-12T06:37:54.352Z,6.12
2019-02-12T06:39:54.304Z,6.13
2019-02-12T06:41:54.360Z,6.12
2019-02-12T06:43:54.329Z,6.12
2019-02-12T06:45:59.340Z,6.14
2019-02-12T06:47:54.372Z,6.13
2019-02-12T06:49:54.343Z,6.15
2019-02-12T06:51:54.344Z,6.12
2019-02-12T06:53:54.401Z,6.11
2019-02-12T06:55:54.337Z,6.13
2019-02-12T06:57:54.354Z,6.08
2019-02-12T06:59:54.370Z,6.08
2019-02-12T07:02:03.363Z,6.10
2019-02-12T07:03:54.359Z,6.12
2019-02-12T07:05:54.370Z,6.11
2019-02-12T07:07:56.367Z,6.10
2019-02-12T07:09:54.342Z,6.10
2019-02-12T07:11:59.402Z,6.12
2019-02-12T07:13:54.349Z,6.10
2019-02-12T07:15:54.344Z,6.12
2019-02-12T07:17:59.310Z,6.11
2019-02-12T07:19:54.358Z,6.12
2019-02-12T07:21:59.323Z,6.13
2019-02-12T07:23:54.395Z,6.12
2019-02-12T07:25:55.238Z,6.12
2019-02-12T07:29:54.399Z,6.09
2019-02-12T07:37:11.940Z,6.11
2019-02-12T07:39:11.925Z,6.12
2019-02-12T07:41:20.142Z,6.11
2019-02-12T07:43:16.772Z,6.09
2019-02-12T07:45:14.710Z,6.13
2019-02-12T07:47:11.805Z,6.11
2019-02-12T07:49:11.929Z,6.11
2019-02-12T07:51:11.783Z,6.13
2019-02-12T07:53:11.900Z,6.11
2019-02-12T07:55:12.034Z,6.12
2019-02-12T07:57:11.793Z,6.13
2019-02-12T07:59:11.802Z,6.09
2019-02-12T08:01:18.036Z,6.11
2019-02-12T08:03:11.994Z,6.14
2019-02-12T08:07:12.161Z,6.12
2019-02-12T08:09:16.833Z,6.12
2019-02-12T08:11:11.832Z,6.11
2019-02-12T08:13:11.864Z,6.14
2019-02-12T08:15:12.049Z,6.13
2019-02-12T08:17:16.502Z,6.13
2019-02-12T08:19:11.979Z,6.14
2019-02-12T08:21:14.809Z,6.13
2019-02-12T08:23:11.867Z,6.13
2019-02-12T08:25:16.792Z,6.14
2019-02-12T08:27:11.876Z,6.13
2019-02-12T08:29:16.865Z,6.16
2019-02-12T08:31:12.066Z,6.13
2019-02-12T08:33:11.982Z,6.12
2019-02-12T08:35:16.878Z,6.14
2019-02-12T08:37:21.854Z,6.14
2019-02-12T08:39:16.821Z,6.14
2019-02-12T08:41:11.998Z,6.14
2019-02-12T08:43:12.055Z,6.18
2019-02-12T08:45:11.927Z,6.16
2019-02-12T08:47:16.152Z,6.16
2019-02-12T08:49:12.076Z,6.18
2019-02-12T08:51:17.072Z,6.15
2019-02-12T08:53:14.088Z,6.18
2019-02-12T08:55:12.024Z,6.16
2019-02-12T08:57:11.923Z,6.17
2019-02-12T08:59:14.000Z,6.18
2019-02-12T09:01:11.932Z,6.18
2019-02-12T09:03:16.972Z,6.17
2019-02-12T09:05:16.507Z,6.18
2019-02-12T09:09:08.965Z,6.21
2019-02-12T09:11:09.053Z,6.22
2019-02-12T09:13:08.150Z,6.22
2019-02-12T09:15:08.163Z,6.19
2019-02-12T09:17:08.141Z,6.23
2019-02-12T09:19:08.125Z,6.23
2019-02-12T09:21:13.087Z,6.25
2019-02-12T09:23:08.178Z,6.23
2019-02-12T09:25:13.033Z,6.25
2019-02-12T09:27:08.104Z,6.25
2019-02-12T09:29:13.030Z,6.26
2019-02-12T09:31:08.009Z,6.24
2019-02-12T09:33:08.247Z,6.24
2019-02-12T09:35:12.772Z,6.26
2019-02-12T09:37:08.798Z,6.24
2019-02-12T09:39:08.179Z,6.26
2019-02-12T09:41:08.222Z,6.31
2019-02-12T09:43:07.990Z,6.28
2019-02-12T09:45:12.836Z,6.30
2019-02-12T09:47:08.130Z,6.31
2019-02-12T09:49:08.215Z,6.31
2019-02-12T09:51:08.148Z,6.30
2019-02-12T09:53:07.974Z,6.31
2019-02-12T09:55:12.968Z,6.31
2019-02-12T09:57:08.101Z,6.35
2019-02-12T09:59:08.198Z,6.35
2019-02-12T10:01:09.962Z,6.37
2019-02-12T10:03:08.112Z,6.38
2019-02-12T10:05:08.015Z,6.42
2019-02-12T10:07:18.214Z,6.42
2019-02-12T10:09:08.193Z,6.41
2019-02-12T10:11:08.183Z,6.42
2019-02-12T10:13:12.515Z,6.43
2019-02-12T10:15:08.205Z,6.45
2019-02-12T10:17:08.216Z,6.45
2019-02-12T10:19:08.029Z,6.45
2019-02-12T10:21:08.166Z,6.46
2019-02-12T10:23:08.124Z,6.47
2019-02-12T10:25:12.383Z,6.48
2019-02-12T10:27:08.193Z,6.51
2019-02-12T10:29:08.186Z,6.53
2019-02-12T10:31:08.223Z,6.53
2019-02-12T10:33:08.071Z,6.52
2019-02-12T10:39:56.585Z,6.55
2019-02-12T10:41:52.219Z,6.55
2019-02-12T10:45:52.226Z,6.58
2019-02-12T10:47:52.235Z,6.60
2019-02-12T10:51:52.219Z,6.67
2019-02-12T10:53:54.309Z,6.70
2019-02-12T10:57:52.207Z,6.74
2019-02-12T10:59:57.202Z,6.76
2019-02-12T11:03:52.237Z,6.78
2019-02-12T11:05:52.260Z,6.81
2019-02-12T11:09:52.244Z,6.84
2019-02-12T11:11:52.225Z,6.85
2019-02-12T11:15:52.269Z,6.89
2019-02-12T11:17:52.237Z,6.93
2019-02-12T11:21:52.216Z,6.96
2019-02-12T11:23:52.244Z,6.96
2019-02-12T11:27:52.223Z,7.00
2019-02-12T11:29:52.212Z,7.00
2019-02-12T11:33:52.225Z,7.05
2019-02-12T11:35:52.243Z,7.06
2019-02-12T11:39:52.223Z,7.08
2019-02-12T11:41:52.251Z,7.09
2019-02-12T11:45:52.259Z,7.13
2019-02-12T11:47:52.235Z,7.13
2019-02-12T11:51:52.226Z,7.17
2019-02-12T11:53:52.243Z,7.17
2019-02-12T11:57:52.221Z,7.21
2019-02-12T11:59:54.714Z,7.22
2019-02-12T12:03:52.297Z,7.27
2019-02-12T12:05:57.219Z,7.28
2019-02-12T12:09:57.278Z,7.30
2019-02-12T12:11:57.606Z,7.32
2019-02-12T12:15:52.279Z,7.34
2019-02-12T14:21:09.441Z,8.00
2019-02-12T14:23:09.447Z,8.01
2019-02-12T14:27:09.467Z,8.01
2019-02-12T14:29:09.481Z,8.02
2019-02-12T14:33:09.473Z,8.03
2019-02-12T14:35:09.490Z,8.03
2019-02-12T14:39:09.486Z,8.05
2019-02-12T14:41:09.470Z,8.05
2019-02-12T14:45:09.514Z,8.05
2019-02-12T14:47:09.509Z,8.06
2019-02-12T14:51:13.233Z,8.06
2019-02-12T14:53:09.481Z,8.07
2019-02-12T14:57:09.500Z,8.07
2019-02-12T14:59:13.384Z,8.07
2019-02-12T15:03:23.903Z,8.07
2019-02-12T15:05:18.059Z,8.08
2019-02-12T15:09:09.548Z,8.08
2019-02-12T15:11:14.447Z,8.08
2019-02-12T15:15:09.514Z,8.09
2019-02-12T15:17:14.337Z,8.09
2019-02-12T15:21:09.525Z,8.09
2019-02-12T15:23:09.533Z,8.10
2019-02-12T15:27:09.522Z,8.09
2019-02-12T15:29:09.543Z,8.09
2019-02-12T15:33:09.524Z,8.10
2019-02-12T15:35:09.541Z,8.09
2019-02-12T15:39:09.534Z,8.08
2019-02-12T15:41:09.522Z,8.09
2019-02-12T15:45:09.544Z,8.09
2019-02-12T15:47:09.552Z,8.08
2019-02-12T15:51:09.531Z,8.08
2019-02-12T15:53:09.555Z,8.09
2019-02-12T15:57:14.745Z,8.09
2019-02-12T15:59:09.554Z,8.09
2019-02-12T16:03:09.579Z,8.09
2019-02-12T16:05:14.652Z,8.09
2019-02-12T16:09:16.183Z,8.08
2019-02-12T16:11:14.509Z,8.09
2019-02-12T16:15:12.021Z,8.07
2019-02-12T16:17:17.540Z,8.08
2019-02-12T16:21:09.572Z,8.07
2019-02-12T16:23:14.460Z,8.08
2019-02-12T16:28:58.444Z,8.07
2019-02-12T16:30:58.439Z,8.08
2019-02-12T16:33:05.064Z,8.08
2019-02-12T16:34:58.442Z,8.08
2019-02-12T16:37:08.374Z,8.07
2019-02-12T16:38:58.441Z,8.08
2019-02-12T16:41:03.660Z,8.08
2019-02-12T16:43:02.766Z,8.07
2019-02-12T16:44:58.390Z,8.08
2019-02-12T16:47:02.364Z,8.07
2019-02-12T16:48:58.451Z,8.08
2019-02-12T16:50:58.455Z,8.07
2019-02-12T16:52:58.481Z,8.07
2019-02-12T16:56:41.537Z,8.07
2019-02-12T16:58:44.483Z,8.07
2019-02-12T17:13:33.250Z,8.03
2019-02-12T17:15:37.053Z,8.04
2019-02-12T17:17:33.329Z,8.03
2019-02-12T17:19:30.008Z,8.03
2019-02-12T17:21:34.177Z,8.01
2019-02-12T17:23:36.101Z,8.01
2019-02-12T17:25:29.252Z,8.00
2019-02-12T17:27:29.199Z,8.01
2019-02-12T17:29:32.668Z,8.00
2019-02-12T17:31:29.226Z,7.99
2019-02-12T17:33:56.046Z,7.99
2019-02-12T17:35:29.236Z,7.98
2019-02-12T17:37:33.911Z,7.98
2019-02-12T17:39:32.176Z,7.97
2019-02-12T17:41:29.239Z,7.96
2019-02-12T17:45:34.122Z,7.95
2019-02-12T17:47:29.308Z,7.95
2019-02-12T17:49:36.534Z,7.93
2019-02-12T17:51:29.229Z,7.93
2019-02-12T17:53:29.226Z,7.92
2019-02-12T17:55:29.100Z,7.92
2019-02-12T17:57:29.296Z,7.92
2019-02-12T17:59:29.161Z,7.90
2019-02-12T18:01:34.150Z,7.91
2019-02-12T18:03:32.443Z,7.90
2019-02-12T18:05:29.318Z,7.89
2019-02-12T18:07:29.116Z,7.89
2019-02-12T18:09:33.370Z,7.89
2019-02-12T18:11:38.460Z,7.88
2019-02-12T18:13:30.641Z,7.87
2019-02-12T18:15:29.188Z,7.87
2019-02-12T18:17:29.270Z,7.87
2019-02-12T18:19:29.111Z,7.86
2019-02-12T18:21:29.136Z,7.86
2019-02-12T18:23:33.699Z,7.84
2019-02-12T18:25:29.258Z,7.84
2019-02-12T18:27:33.390Z,7.84
2019-02-12T18:29:29.303Z,7.84
2019-02-12T18:31:33.995Z,7.82
2019-02-12T18:33:39.786Z,7.82
2019-02-12T18:35:29.329Z,7.83
2019-02-12T18:37:34.129Z,7.80
2019-02-12T18:39:31.308Z,7.79
2019-02-12T18:41:38.194Z,7.80
2019-02-12T18:43:31.664Z,7.81
2019-02-12T18:45:29.270Z,7.81
2019-02-12T18:47:29.161Z,7.78
2019-02-12T18:49:33.628Z,7.77
2019-02-12T18:51:29.139Z,7.78
2019-02-12T18:53:29.348Z,7.78
2019-02-12T18:55:32.832Z,7.76
2019-02-12T18:57:34.083Z,7.77
2019-02-12T18:59:29.159Z,7.78
2019-02-12T19:01:29.155Z,7.75
2019-02-12T19:03:33.804Z,7.76
2019-02-12T19:05:33.156Z,7.75
2019-02-12T19:07:29.275Z,7.73
2019-02-12T19:09:33.767Z,7.74
2019-02-12T19:11:48.449Z,7.73
2019-02-12T19:13:31.889Z,7.73
2019-02-12T19:15:54.720Z,7.73
2019-02-12T19:17:50.814Z,7.71
2019-02-12T19:19:49.707Z,7.72
2019-02-12T19:21:50.040Z,7.70
2019-02-12T19:23:49.708Z,7.70
2019-02-12T19:25:51.805Z,7.68
2019-02-12T19:27:52.128Z,7.68
2019-02-12T19:29:49.709Z,7.69
2019-02-12T19:31:49.752Z,7.69
2019-02-12T19:33:49.744Z,7.68
2019-02-12T19:35:49.748Z,7.65
2019-02-12T19:37:49.696Z,7.67
2019-02-12T19:39:49.724Z,7.66
2019-02-12T19:41:54.555Z,7.64
2019-02-12T19:45:49.763Z,7.65
2019-02-12T19:47:49.773Z,7.66
2019-02-12T19:49:51.826Z,7.65
2019-02-12T19:51:51.951Z,7.64
2019-02-12T19:53:54.695Z,7.64
2019-02-12T19:55:54.222Z,7.63
2019-02-12T19:57:54.234Z,7.63
2019-02-12T19:59:49.709Z,7.62
2019-02-12T20:01:49.730Z,7.62
2019-02-12T20:03:54.766Z,7.61
2019-02-12T20:05:49.699Z,7.59
2019-02-12T20:07:50.713Z,7.60
2019-02-12T20:09:50.047Z,7.60
2019-02-12T20:11:54.751Z,7.60
2019-02-12T20:13:49.762Z,7.59
2019-02-12T20:15:49.778Z,7.59
2019-02-12T20:17:54.375Z,7.59
2019-02-12T20:19:49.752Z,7.58
2019-02-12T20:21:49.776Z,7.58
2019-02-12T20:23:49.814Z,7.58
2019-02-12T20:25:49.731Z,7.58
2019-02-12T20:27:54.796Z,7.57
2019-02-12T20:29:54.827Z,7.55
2019-02-12T20:31:50.072Z,7.55
2019-02-12T20:33:57.136Z,7.54
2019-02-12T20:35:49.749Z,7.54
2019-02-12T20:37:54.277Z,7.54
2019-02-12T20:39:49.809Z,7.52
2019-02-12T20:42:03.948Z,7.52
2019-02-12T20:43:49.776Z,7.53
2019-02-12T20:45:49.757Z,7.53
2019-02-12T20:47:49.865Z,7.52
2019-02-12T20:49:53.405Z,7.52
2019-02-12T20:51:49.788Z,7.51
2019-02-12T20:53:49.773Z,7.49
2019-02-12T20:55:49.779Z,7.51
2019-02-12T20:57:54.671Z,7.50
2019-02-12T20:59:52.181Z,7.50
2019-02-12T21:01:49.781Z,7.49
2019-02-12T21:03:49.781Z,7.48
2019-02-12T21:05:53.401Z,7.48
2019-02-12T21:07:49.887Z,7.47
2019-02-12T21:09:51.864Z,7.47
2019-02-12T21:11:58.954Z,7.46
2019-02-12T21:13:49.770Z,7.47
2019-02-12T21:15:49.783Z,7.47
2019-02-12T21:17:53.489Z,7.46
2019-02-12T21:19:49.798Z,7.46
2019-02-12T21:21:50.072Z,7.46
2019-02-12T21:23:59.259Z,7.45
2019-02-12T21:25:59.002Z,7.44
2019-02-12T21:27:49.903Z,7.45
2019-02-12T21:29:51.969Z,7.44
2019-02-12T21:31:51.137Z,7.43
2019-02-12T21:33:53.569Z,7.44
2019-02-12T21:35:51.900Z,7.41
2019-02-12T21:37:54.354Z,7.42
2019-02-12T21:39:49.938Z,7.41
2019-02-12T21:41:53.577Z,7.43
2019-02-12T21:43:49.743Z,7.41
2019-02-12T21:45:54.765Z,7.39
2019-02-12T21:47:53.506Z,7.38
2019-02-12T21:49:49.741Z,7.39
2019-02-12T21:51:52.198Z,7.39
2019-02-12T21:53:49.746Z,7.38
2019-02-12T21:55:53.409Z,7.37
2019-02-12T21:57:50.000Z,7.37
2019-02-12T21:59:51.920Z,7.38
2019-02-12T22:01:54.106Z,7.36
2019-02-12T22:03:49.812Z,7.36
2019-02-12T22:05:49.781Z,7.36
2019-02-12T22:07:49.770Z,7.35
2019-02-12T22:09:49.967Z,7.36
2019-02-12T22:11:51.845Z,7.34
2019-02-12T22:13:49.983Z,7.33
2019-02-12T22:15:49.828Z,7.34
2019-02-12T22:17:49.786Z,7.35
2019-02-12T22:19:51.842Z,7.32
2019-02-12T22:21:50.027Z,7.31
2019-02-12T22:23:49.767Z,7.32
2019-02-12T22:25:49.764Z,7.32
2019-02-12T22:27:50.176Z,7.31
2019-02-12T22:29:53.409Z,7.31
2019-02-12T22:31:49.925Z,7.33
2019-02-12T22:33:50.008Z,7.32
2019-02-12T22:35:49.818Z,7.32
2019-02-12T22:37:49.813Z,7.30
2019-02-12T22:39:49.787Z,7.30
2019-02-12T22:41:49.778Z,7.29
2019-02-12T22:43:49.826Z,7.30
2019-02-12T22:45:49.972Z,7.30
2019-02-12T22:47:53.420Z,7.30
2019-02-12T22:49:54.371Z,7.29
2019-02-12T22:51:54.393Z,7.31
2019-02-12T22:53:54.799Z,7.31
2019-02-12T22:55:49.756Z,7.30
2019-02-12T22:57:49.852Z,7.28
2019-02-12T22:59:53.493Z,7.28
2019-02-12T23:01:54.247Z,7.28
2019-02-12T23:03:49.840Z,7.29
2019-02-12T23:05:49.779Z,7.32
2019-02-12T23:07:55.027Z,7.30
2019-02-12T23:09:49.856Z,7.31
2019-02-12T23:11:49.816Z,7.32
2019-02-12T23:13:49.822Z,7.31
2019-02-12T23:15:54.828Z,7.29
2019-02-12T23:17:49.835Z,7.31
2019-02-12T23:19:49.839Z,7.31
2019-02-12T23:21:49.994Z,7.29
2019-02-12T23:23:49.772Z,7.30
2019-02-12T23:25:54.190Z,7.30
2019-02-12T23:27:57.284Z,7.29
2019-02-12T23:29:49.799Z,7.30
2019-02-12T23:31:49.805Z,7.27
2019-02-12T23:33:49.847Z,7.29
2019-02-12T23:35:49.829Z,7.29
2019-02-12T23:37:49.797Z,7.29
2019-02-12T23:39:49.842Z,7.31
2019-02-12T23:41:53.628Z,7.29
2019-02-12T23:43:54.533Z,7.29
2019-02-12T23:45:49.857Z,7.29
2019-02-12T23:47:49.841Z,7.30
2019-02-12T23:49:49.816Z,7.31
2019-02-12T23:51:49.910Z,7.28
2019-02-12T23:53:51.781Z,7.29
2019-02-12T23:55:49.837Z,7.30
2019-02-12T23:57:49.857Z,7.30
2019-02-12T23:59:49.830Z,7.31
